Time;durP1;ratioP1;P1;durP2;ratioP2;P2;SDS_P1;SDS_P2;PMS_P1;PMS_P2;Temp;Humidity;BMP_temperature;BMP_pressure;BME280_temperature;BME280_humidity;BME280_pressure;Samples;Min_cycle;Max_cycle;Signal;HPM_P1;HPM_P2
2022/11/10 00:02:17;;;;;;;18.30;11.27;;;10.60;99.90;;;;;;8353745;28;20095;-85
2022/11/10 00:06:18;;;;;;;17.70;11.05;;;10.50;99.90;;;;;;8363385;28;20025;-85
2022/11/10 00:10:18;;;;;;;18.85;11.55;;;10.40;99.90;;;;;;8355649;28;20017;-85
2022/11/10 00:18:38;;;;;;;17.05;10.77;;;10.40;99.90;;;;;;8357162;28;20063;-85
2022/11/10 00:22:40;;;;;;;17.63;11.35;;;10.40;99.90;;;;;;8343253;28;20077;-85
2022/11/10 00:26:40;;;;;;;18.35;10.38;;;10.40;99.90;;;;;;8349876;28;20100;-83
2022/11/10 00:30:41;;;;;;;18.98;11.68;;;10.50;99.90;;;;;;8356040;28;20026;-84
2022/11/10 00:34:41;;;;;;;21.40;12.25;;;10.50;99.90;;;;;;8343946;28;20060;-84
2022/11/10 00:38:42;;;;;;;17.25;11.18;;;10.60;99.90;;;;;;8348303;28;20029;-84
2022/11/10 00:42:42;;;;;;;16.77;9.63;;;10.50;99.90;;;;;;8350118;28;20018;-84
2022/11/10 00:46:43;;;;;;;12.15;8.40;;;10.80;99.90;;;;;;8361700;28;20024;-84
2022/11/10 00:50:43;;;;;;;5.90;3.60;;;10.80;99.90;;;;;;8346814;28;20067;-85
2022/11/10 00:54:44;;;;;;;5.13;2.60;;;10.50;99.90;;;;;;8361692;28;20036;-86
2022/11/10 00:58:47;;;;;;;5.72;2.63;;;10.30;99.90;;;;;;8359034;28;20029;-85
2022/11/10 01:02:56;;;;;;;3.35;2.22;;;10.00;99.90;;;;;;8348779;28;20558;-85
2022/11/10 01:06:56;;;;;;;3.35;2.35;;;9.90;99.90;;;;;;8361348;28;20017;-85
2022/11/10 01:11:05;;;;;;;5.10;2.53;;;9.80;99.90;;;;;;8357524;28;20039;-84
2022/11/10 01:15:06;;;;;;;4.43;2.17;;;9.90;99.90;;;;;;8348367;28;20032;-84
2022/11/10 01:19:07;;;;;;;4.68;2.55;;;9.80;99.90;;;;;;8349206;28;20450;-85
2022/11/10 01:23:14;;;;;;;2.78;1.75;;;9.70;99.90;;;;;;8356733;28;20029;-84
2022/11/10 01:27:15;;;;;;;2.05;1.60;;;9.50;99.90;;;;;;8356252;28;20406;-85
2022/11/10 01:31:19;;;;;;;5.22;1.90;;;9.40;99.90;;;;;;8338732;28;20039;-85
2022/11/10 01:35:20;;;;;;;3.78;1.90;;;9.30;99.90;;;;;;8337468;28;20179;-84
2022/11/10 01:39:21;;;;;;;7.13;1.90;;;9.30;99.90;;;;;;8336537;28;20026;-84
2022/11/10 01:43:22;;;;;;;3.35;1.80;;;9.20;99.90;;;;;;8351476;28;20033;-84
2022/11/10 01:47:22;;;;;;;5.20;1.70;;;9.20;99.90;;;;;;8346525;28;20044;-84
2022/11/10 01:51:49;;;;;;;4.10;1.63;;;9.10;99.90;;;;;;8345288;28;20031;-84
2022/11/10 01:55:57;;;;;;;1.60;1.40;;;9.10;99.90;;;;;;8343021;28;20068;-84
2022/11/10 01:59:58;;;;;;;2.90;1.52;;;9.10;99.90;;;;;;8336573;28;20411;-84
2022/11/10 02:04:05;;;;;;;2.13;1.70;;;9.10;99.90;;;;;;8334897;28;20032;-83
2022/11/10 02:08:06;;;;;;;3.00;1.67;;;9.10;99.90;;;;;;8360545;28;20515;-84
2022/11/10 02:12:07;;;;;;;5.32;1.40;;;9.10;99.90;;;;;;8349006;28;20536;-84
2022/11/10 02:16:09;;;;;;;2.33;1.30;;;9.00;99.90;;;;;;8346732;28;20079;-84
2022/11/10 02:20:12;;;;;;;4.38;1.52;;;9.00;99.90;;;;;;8342234;28;20025;-84
2022/11/10 02:24:16;;;;;;;2.60;1.50;;;9.00;99.90;;;;;;8353838;28;20029;-84
2022/11/10 02:28:17;;;;;;;2.67;1.63;;;8.90;99.90;;;;;;8346876;28;20017;-84
2022/11/10 02:32:17;;;;;;;1.73;1.30;;;9.10;99.90;;;;;;8340587;28;20084;-84
2022/11/10 02:36:18;;;;;;;1.50;1.08;;;8.90;99.90;;;;;;8357116;28;20033;-84
2022/11/10 02:40:19;;;;;;;2.50;1.33;;;9.00;99.90;;;;;;8343235;28;20029;-84
2022/11/10 02:44:19;;;;;;;4.93;1.40;;;8.90;99.90;;;;;;8349851;28;20595;-84
2022/11/10 02:48:20;;;;;;;1.77;1.40;;;8.80;99.90;;;;;;8361046;28;20388;-84
2022/11/10 02:52:20;;;;;;;8.18;1.60;;;8.70;99.90;;;;;;8359363;28;20032;-84
2022/11/10 02:56:21;;;;;;;3.35;1.38;;;8.70;99.90;;;;;;8351623;28;20116;-84
2022/11/10 03:00:21;;;;;;;2.55;1.52;;;8.50;99.90;;;;;;8363749;28;20031;-84
2022/11/10 03:04:22;;;;;;;2.22;1.50;;;8.40;99.90;;;;;;8347785;23;20435;-81
2022/11/10 03:08:23;;;;;;;4.78;1.70;;;8.30;99.90;;;;;;8337080;28;20067;-79
2022/11/10 03:12:23;;;;;;;2.20;1.73;;;8.20;99.90;;;;;;8317635;28;20022;-80
2022/11/10 03:16:24;;;;;;;3.05;1.58;;;8.20;99.90;;;;;;8302707;28;20034;-80
2022/11/10 03:20:24;;;;;;;2.40;1.50;;;8.20;99.90;;;;;;8304668;28;20041;-81
2022/11/10 03:24:25;;;;;;;2.45;1.85;;;8.00;99.90;;;;;;8301985;28;20038;-80
2022/11/10 03:28:25;;;;;;;4.82;1.80;;;7.90;99.90;;;;;;8302084;28;20029;-80
2022/11/10 03:32:26;;;;;;;2.65;1.85;;;8.00;99.90;;;;;;8290340;28;20072;-79
2022/11/10 03:36:26;;;;;;;2.22;1.30;;;8.10;99.90;;;;;;8305313;28;20489;-80
2022/11/10 03:40:27;;;;;;;3.35;1.50;;;8.00;99.90;;;;;;8306074;28;20030;-79
2022/11/10 03:44:27;;;;;;;5.82;1.77;;;7.90;99.90;;;;;;8301359;28;20022;-81
2022/11/10 03:48:28;;;;;;;5.13;1.90;;;7.80;99.90;;;;;;8304714;28;20033;-81
2022/11/10 03:52:29;;;;;;;3.67;1.98;;;7.70;99.90;;;;;;8304063;28;20023;-81
2022/11/10 03:56:29;;;;;;;2.08;1.42;;;7.70;99.90;;;;;;8305352;28;20026;-80
2022/11/10 04:00:30;;;;;;;3.05;1.70;;;7.50;99.90;;;;;;8300652;28;20056;-80
2022/11/10 04:08:58;;;;;;;4.38;1.60;;;7.30;99.90;;;;;;8294058;28;20036;-79
2022/11/10 04:17:18;;;;;;;2.40;1.35;;;6.90;99.90;;;;;;8282041;28;20045;-79
2022/11/10 04:21:18;;;;;;;3.67;1.65;;;6.90;99.90;;;;;;8285984;28;20486;-80
2022/11/10 04:25:19;;;;;;;4.32;1.65;;;6.70;99.90;;;;;;8271940;28;20298;-79
2022/11/10 04:29:19;;;;;;;4.97;1.80;;;6.60;99.90;;;;;;8273278;28;20022;-81
2022/11/10 04:33:20;;;;;;;3.85;1.60;;;6.40;99.90;;;;;;8280585;28;20026;-80
2022/11/10 04:37:20;;;;;;;3.15;1.40;;;6.20;99.90;;;;;;8270074;28;20030;-80
2022/11/10 04:41:27;;;;;;;102.28;5.00;;;6.10;99.90;;;;;;8288551;28;20046;-79
2022/11/10 04:45:27;;;;;;;1.80;1.60;;;6.00;99.90;;;;;;8302144;28;20405;-79
2022/11/10 04:49:28;;;;;;;3.33;1.90;;;5.90;99.90;;;;;;8308363;28;20026;-81
2022/11/10 04:53:28;;;;;;;4.55;2.53;;;5.80;99.90;;;;;;8304524;28;20029;-80
2022/11/10 04:57:29;;;;;;;4.68;2.42;;;5.80;99.90;;;;;;8306941;28;20026;-81
2022/11/10 05:01:29;;;;;;;5.22;2.75;;;5.80;99.90;;;;;;8302957;28;20254;-80
2022/11/10 05:05:31;;;;;;;8.13;2.67;;;5.90;99.90;;;;;;8303754;28;20037;-81
2022/11/10 05:09:31;;;;;;;4.35;2.42;;;5.80;99.90;;;;;;8309939;28;20022;-80
2022/11/10 05:13:32;;;;;;;16.38;3.47;;;5.70;99.90;;;;;;8311008;28;20021;-81
2022/11/10 05:17:33;;;;;;;6.30;2.65;;;5.60;99.90;;;;;;8309595;28;20045;-80
2022/11/10 05:21:33;;;;;;;6.78;2.70;;;5.50;99.90;;;;;;8298455;28;20034;-81
2022/11/10 05:25:36;;;;;;;9.68;2.70;;;5.30;99.90;;;;;;8322107;28;20038;-80
2022/11/10 05:29:36;;;;;;;6.25;3.58;;;5.40;99.90;;;;;;8297092;28;20521;-80
2022/11/10 05:33:38;;;;;;;8.48;5.30;;;5.70;99.90;;;;;;8290489;28;20022;-79
2022/11/10 05:37:39;;;;;;;9.00;4.45;;;5.80;99.90;;;;;;8297211;28;20026;-80
2022/11/10 05:41:40;;;;;;;5.75;3.72;;;5.60;99.90;;;;;;8289355;28;20397;-79
2022/11/10 05:45:41;;;;;;;31.08;4.13;;;5.40;99.90;;;;;;8288900;28;20021;-79
2022/11/10 05:49:41;;;;;;;3.95;2.50;;;5.10;99.90;;;;;;8285275;28;20400;-79
2022/11/10 05:53:42;;;;;;;4.10;2.60;;;5.10;99.90;;;;;;8292737;28;20022;-80
2022/11/10 05:57:44;;;;;;;15.77;4.43;;;5.00;99.90;;;;;;8294735;28;20029;-79
2022/11/10 06:01:44;;;;;;;33.58;6.30;;;5.10;99.90;;;;;;8289749;28;20066;-78
2022/11/10 06:05:45;;;;;;;18.27;6.93;;;5.20;99.90;;;;;;8278561;28;20568;-80
2022/11/10 06:09:47;;;;;;;24.73;8.93;;;4.90;99.90;;;;;;8292759;28;20022;-80
2022/11/10 06:13:47;;;;;;;30.92;9.70;;;4.70;99.90;;;;;;8292853;28;20112;-79
2022/11/10 06:17:48;;;;;;;23.95;4.40;;;4.80;99.90;;;;;;8293040;28;20536;-79
2022/11/10 06:21:49;;;;;;;10.15;4.65;;;5.10;99.90;;;;;;8294253;28;20030;-80
2022/11/10 06:25:50;;;;;;;18.75;5.53;;;5.00;99.90;;;;;;8293157;28;20030;-80
2022/11/10 06:29:50;;;;;;;48.90;6.10;;;4.70;99.90;;;;;;8294656;28;20699;-79
2022/11/10 06:33:51;;;;;;;7.82;3.75;;;4.50;99.90;;;;;;8298309;28;20022;-79
2022/11/10 06:38:08;;;;;;;10.63;4.15;;;4.50;99.90;;;;;;8299602;28;20022;-79
2022/11/10 06:42:09;;;;;;;10.07;6.20;;;4.40;99.90;;;;;;8298222;28;20026;-79
2022/11/10 06:46:09;;;;;;;86.00;8.95;;;4.30;99.90;;;;;;8296563;28;20120;-80
2022/11/10 06:50:10;;;;;;;7.85;5.28;;;4.30;99.90;;;;;;8299839;28;20532;-79
2022/11/10 06:54:11;;;;;;;9.70;4.85;;;4.40;99.90;;;;;;8297453;28;20026;-80
2022/11/10 06:58:11;;;;;;;9.15;4.70;;;4.50;99.90;;;;;;8297349;28;20036;-80
2022/11/10 07:02:13;;;;;;;9.57;5.00;;;4.90;99.90;;;;;;8289850;28;20034;-79
2022/11/10 07:06:14;;;;;;;8.60;4.57;;;5.30;99.90;;;;;;8287294;28;20069;-79
2022/11/10 07:10:14;;;;;;;7.78;4.35;;;5.30;99.90;;;;;;8297194;28;20029;-78
2022/11/10 07:14:15;;;;;;;7.10;4.38;;;5.20;99.90;;;;;;8297085;28;20026;-78
2022/11/10 07:18:15;;;;;;;12.88;6.18;;;5.20;99.90;;;;;;8287152;28;20478;-79
2022/11/10 07:22:16;;;;;;;11.15;6.00;;;5.30;99.90;;;;;;8297165;28;20018;-81
2022/11/10 07:26:17;;;;;;;12.45;5.93;;;5.40;99.90;;;;;;8298075;28;20067;-80
2022/11/10 07:30:18;;;;;;;11.10;5.60;;;5.40;99.90;;;;;;8295785;28;20026;-79
2022/11/10 07:34:19;;;;;;;8.52;5.07;;;5.40;99.90;;;;;;8295533;28;20026;-80
2022/11/10 07:38:19;;;;;;;9.95;5.30;;;5.50;99.90;;;;;;8292619;28;20028;-80
2022/11/10 07:42:20;;;;;;;14.63;6.75;;;5.50;99.90;;;;;;8293228;28;20026;-79
2022/11/10 07:46:20;;;;;;;14.23;6.57;;;5.60;99.90;;;;;;8296181;28;20038;-79
2022/11/10 07:50:21;;;;;;;14.90;7.03;;;5.80;99.90;;;;;;8294624;28;20030;-78
2022/11/10 07:54:21;;;;;;;13.25;5.90;;;6.00;99.90;;;;;;8295753;28;20030;-79
2022/11/10 07:58:22;;;;;;;16.00;7.13;;;6.50;99.90;;;;;;8295661;28;20401;-80
2022/11/10 08:02:22;;;;;;;13.85;6.50;;;6.70;99.90;;;;;;8289466;28;20023;-80
2022/11/10 08:06:23;;;;;;;15.73;7.72;;;7.00;99.90;;;;;;8291088;28;20030;-80
2022/11/10 08:10:23;;;;;;;19.98;10.07;;;7.00;99.90;;;;;;8293268;28;20191;-79
2022/11/10 08:14:24;;;;;;;21.45;10.48;;;7.00;99.90;;;;;;8284721;28;20030;-80
2022/11/10 08:18:25;;;;;;;18.95;7.90;;;7.20;99.90;;;;;;8293728;28;20022;-79
2022/11/10 08:22:25;;;;;;;22.52;9.00;;;7.60;99.90;;;;;;8293739;28;20030;-80
2022/11/10 08:26:26;;;;;;;21.25;8.63;;;8.00;99.90;;;;;;8294562;28;20506;-80
2022/11/10 08:30:28;;;;;;;19.65;8.02;;;8.20;99.90;;;;;;8291737;28;20486;-81
2022/11/10 08:34:28;;;;;;;16.10;7.03;;;8.40;99.90;;;;;;8295422;28;20030;-80
2022/11/10 08:38:29;;;;;;;16.42;7.38;;;8.50;99.90;;;;;;8293871;28;20092;-80
2022/11/10 08:42:29;;;;;;;13.43;6.65;;;8.30;99.90;;;;;;8285720;28;20025;-81
2022/11/10 08:46:30;;;;;;;12.15;6.30;;;8.80;99.90;;;;;;8291386;28;20026;-81
2022/11/10 08:50:31;;;;;;;17.05;6.35;;;9.10;99.90;;;;;;8294398;28;20174;-79
2022/11/10 08:54:31;;;;;;;12.55;5.85;;;9.50;99.90;;;;;;8294364;28;20036;-80
2022/11/10 08:58:32;;;;;;;9.52;6.03;;;9.70;99.90;;;;;;8289354;28;20037;-80
2022/11/10 09:02:32;;;;;;;8.32;4.22;;;10.00;99.90;;;;;;8284319;28;20120;-81
2022/11/10 09:06:33;;;;;;;9.10;4.57;;;10.20;99.90;;;;;;8291976;28;20057;-82
2022/11/10 09:10:36;;;;;;;7.22;3.80;;;10.20;99.90;;;;;;8281941;28;20018;-82
2022/11/10 09:14:36;;;;;;;7.10;4.03;;;10.20;99.90;;;;;;8292044;28;20502;-80
2022/11/10 09:18:37;;;;;;;11.90;4.88;;;10.30;99.90;;;;;;8292192;28;20037;-81
2022/11/10 09:22:37;;;;;;;5.72;3.80;;;10.40;99.90;;;;;;8294657;28;20040;-81
2022/11/10 09:26:38;;;;;;;6.82;3.95;;;10.50;99.90;;;;;;8289060;28;20022;-82
2022/11/10 09:30:39;;;;;;;5.45;3.60;;;10.70;99.90;;;;;;8289955;28;20032;-81
2022/11/10 09:34:41;;;;;;;10.38;3.50;;;10.80;99.90;;;;;;8283459;28;20421;-81
2022/11/10 09:38:42;;;;;;;7.47;3.25;;;11.00;99.90;;;;;;8289831;28;20030;-82
2022/11/10 09:42:44;;;;;;;5.47;2.80;;;11.10;99.90;;;;;;8294774;28;20033;-82
2022/11/10 09:46:53;;;;;;;7.63;3.88;;;11.50;99.90;;;;;;8279756;28;20031;-81
2022/11/10 09:51:00;;;;;;;6.10;2.50;;;12.50;99.90;;;;;;8285303;28;20022;-82
2022/11/10 09:55:37;;;;;;;2.65;2.03;;;13.30;99.90;;;;;;8291072;28;20062;-82
2022/11/10 09:59:38;;;;;;;4.50;2.00;;;13.90;99.90;;;;;;8294195;28;20112;-82
2022/11/10 10:03:47;;;;;;;3.60;2.03;;;13.70;99.90;;;;;;8282090;28;20034;-81
2022/11/10 10:07:58;;;;;;;6.93;1.98;;;12.90;99.90;;;;;;8279928;28;20071;-81
2022/11/10 10:12:14;;;;;;;3.40;1.60;;;12.50;99.90;;;;;;8292117;28;20097;-81
2022/11/10 10:16:17;;;;;;;3.20;1.80;;;12.40;99.90;;;;;;8293165;28;20105;-80
2022/11/10 10:20:41;;;;;;;2.95;2.08;;;12.40;99.90;;;;;;8292694;28;20026;-81
2022/11/10 10:24:42;;;;;;;2.53;1.80;;;12.60;99.90;;;;;;8267821;28;20100;-80
2022/11/10 10:28:48;;;;;;;2.70;1.63;;;12.80;99.90;;;;;;8288013;28;20084;-80
2022/11/10 10:32:56;;;;;;;1.80;1.30;;;13.00;99.90;;;;;;8290347;28;20113;-81
2022/11/10 10:36:56;;;;;;;3.40;1.30;;;13.10;99.90;;;;;;8292800;28;20064;-80
2022/11/10 10:41:02;;;;;;;2.00;1.60;;;13.00;99.90;;;;;;8281472;28;20084;-80
2022/11/10 10:45:20;;;;;;;3.10;1.42;;;13.50;99.90;;;;;;8270348;28;20037;-80
2022/11/10 10:49:26;;;;;;;2.72;1.40;;;14.60;99.90;;;;;;8283086;28;20512;-82
2022/11/10 10:53:27;;;;;;;4.15;1.20;;;16.20;99.90;;;;;;8278000;28;20022;-82
2022/11/10 10:57:28;;;;;;;1.00;0.90;;;17.10;99.90;;;;;;8291428;28;20022;-82
2022/11/10 11:01:31;;;;;;;2.10;1.00;;;17.30;99.90;;;;;;8289563;28;20033;-82
2022/11/10 11:05:32;;;;;;;2.28;0.93;;;17.60;99.90;;;;;;8282042;28;20034;-81
2022/11/10 11:09:41;;;;;;;3.22;0.98;;;17.70;99.90;;;;;;8292545;28;20022;-81
2022/11/10 11:13:42;;;;;;;2.50;0.70;;;18.50;99.90;;;;;;8277202;28;20026;-82
2022/11/10 11:17:54;;;;;;;1.42;0.73;;;18.40;99.90;;;;;;8293794;28;20057;-81
2022/11/10 11:22:24;;;;;;;1.17;0.70;;;17.50;99.90;;;;;;8293376;28;20030;-81
2022/11/10 11:26:46;;;;;;;1.33;0.70;;;16.30;99.90;;;;;;8296527;28;20033;-80
2022/11/10 11:31:06;;;;;;;1.38;0.52;;;17.80;99.90;;;;;;8292136;28;20577;-81
2022/11/10 11:35:30;;;;;;;1.65;0.60;;;18.60;99.90;;;;;;8289242;28;20113;-82
2022/11/10 11:40:03;;;;;;;2.55;0.70;;;19.60;99.90;;;;;;8283157;28;20116;-81
2022/11/10 11:44:15;;;;;;;1.45;0.50;;;20.10;99.90;;;;;;8283236;28;20022;-82
2022/11/10 11:48:46;;;;;;;2.10;0.70;;;18.20;99.90;;;;;;8296957;28;20246;-79
2022/11/10 11:53:19;;;;;;;4.30;0.77;;;16.00;99.90;;;;;;8286688;28;20500;-80
2022/11/10 11:57:53;;;;;;;1.92;0.80;;;16.40;99.90;;;;;;8291177;28;20026;-81
2022/11/10 12:02:02;;;;;;;1.38;0.52;;;16.90;99.90;;;;;;8286726;28;20018;-81
2022/11/10 12:06:35;;;;;;;2.85;1.00;;;18.80;99.90;;;;;;8290573;28;20036;-81
2022/11/10 12:10:53;;;;;;;4.25;0.70;;;18.10;99.90;;;;;;8286424;28;20030;-81
2022/11/10 12:15:09;;;;;;;1.13;0.40;;;16.60;99.90;;;;;;8279168;28;20025;-81
2022/11/10 12:19:28;;;;;;;3.67;0.70;;;14.60;99.90;;;;;;8293653;28;20026;-81
2022/11/10 12:23:49;;;;;;;1.38;0.57;;;13.90;99.90;;;;;;8295654;28;20021;-81
2022/11/10 12:27:57;;;;;;;1.50;0.68;;;13.30;99.90;;;;;;8281256;28;20026;-81
2022/11/10 12:32:22;;;;;;;1.80;0.60;;;12.90;99.90;;;;;;8281519;28;20022;-81
2022/11/10 12:36:26;;;;;;;2.08;0.70;;;12.50;99.90;;;;;;8274644;28;20121;-81
2022/11/10 12:40:33;;;;;;;1.10;0.52;;;12.60;99.90;;;;;;8292709;28;20516;-81
2022/11/10 12:44:44;;;;;;;1.77;0.52;;;12.50;99.90;;;;;;8293628;28;20033;-80
2022/11/10 12:49:18;;;;;;;3.60;0.70;;;12.50;99.90;;;;;;8293471;28;20486;-81
2022/11/10 12:53:23;;;;;;;2.50;0.60;;;12.60;99.90;;;;;;8295103;28;20033;-81
2022/11/10 12:57:26;;;;;;;2.65;0.57;;;12.50;99.90;;;;;;8296157;28;20032;-80
2022/11/10 13:01:27;;;;;;;1.10;0.40;;;12.30;99.90;;;;;;8280295;28;20025;-82
2022/11/10 13:05:37;;;;;;;4.88;0.73;;;12.50;99.90;;;;;;8275018;28;20030;-80
2022/11/10 13:09:41;;;;;;;1.98;0.60;;;12.50;99.90;;;;;;8291558;28;20026;-82
2022/11/10 13:13:45;;;;;;;1.35;0.50;;;12.40;99.90;;;;;;8282084;28;20441;-82
2022/11/10 13:17:46;;;;;;;2.30;0.70;;;12.40;99.90;;;;;;8292107;28;20037;-82
2022/11/10 13:21:49;;;;;;;2.28;0.80;;;12.20;99.90;;;;;;8271331;28;20529;-82
2022/11/10 13:25:52;;;;;;;0.90;0.40;;;12.10;99.90;;;;;;8294450;28;20025;-82
2022/11/10 13:29:56;;;;;;;0.77;0.40;;;12.20;99.90;;;;;;8288584;28;20032;-82
2022/11/10 13:34:23;;;;;;;1.05;0.50;;;12.10;99.90;;;;;;8292334;28;20053;-81
2022/11/10 13:38:38;;;;;;;2.60;0.55;;;12.10;99.90;;;;;;8288804;28;20112;-81
2022/11/10 13:42:39;;;;;;;2.70;0.60;;;12.10;99.90;;;;;;8278642;28;20110;-81
2022/11/10 13:47:04;;;;;;;2.83;0.60;;;12.10;99.90;;;;;;8288182;28;20042;-80
2022/11/10 13:51:19;;;;;;;2.75;0.70;;;11.80;99.90;;;;;;8287393;28;20018;-82
2022/11/10 13:55:46;;;;;;;0.57;0.45;;;11.90;99.90;;;;;;8290579;28;20026;-81
2022/11/10 13:59:51;;;;;;;2.53;0.70;;;12.10;99.90;;;;;;8276161;28;20084;-82
2022/11/10 14:04:00;;;;;;;1.98;0.88;;;12.00;99.90;;;;;;8285205;28;20034;-81
2022/11/10 14:08:04;;;;;;;0.93;0.50;;;12.00;99.90;;;;;;8289580;28;20044;-79
2022/11/10 14:12:14;;;;;;;2.78;0.70;;;11.90;99.90;;;;;;8290691;28;20049;-82
2022/11/10 14:16:22;;;;;;;2.33;0.88;;;11.90;99.90;;;;;;8287736;28;20109;-81
2022/11/10 14:20:28;;;;;;;1.10;0.68;;;11.90;99.90;;;;;;8293691;28;20021;-80
2022/11/10 14:24:35;;;;;;;1.02;0.43;;;11.80;99.90;;;;;;8292661;28;20040;-82
2022/11/10 14:28:36;;;;;;;0.88;0.43;;;12.00;99.90;;;;;;8290896;28;20049;-82
2022/11/10 14:32:37;;;;;;;5.82;0.57;;;11.90;99.90;;;;;;8285606;28;20088;-81
2022/11/10 14:36:38;;;;;;;1.27;0.52;;;11.80;99.90;;;;;;8290790;28;20026;-82
2022/11/10 14:40:40;;;;;;;2.05;0.73;;;11.60;99.90;;;;;;8292660;28;20497;-80
2022/11/10 14:44:41;;;;;;;7.43;0.75;;;11.40;99.90;;;;;;8282260;28;20034;-80
2022/11/10 14:48:41;;;;;;;1.23;0.50;;;11.30;99.90;;;;;;8280804;28;20030;-84
2022/11/10 14:52:45;;;;;;;4.43;0.80;;;11.30;99.90;;;;;;8290215;28;20037;-84
2022/11/10 14:56:46;;;;;;;1.10;0.40;;;11.10;99.90;;;;;;8295925;28;20028;-85
2022/11/10 15:00:47;;;;;;;3.63;1.73;;;10.80;99.90;;;;;;8283065;28;20038;-83
2022/11/10 15:04:50;;;;;;;2.72;1.05;;;10.70;99.90;;;;;;8284585;28;20025;-84
2022/11/10 15:08:50;;;;;;;4.10;1.10;;;10.50;99.90;;;;;;8290592;28;20093;-84
2022/11/10 15:13:21;;;;;;;5.78;0.60;;;10.40;99.90;;;;;;8290672;28;20027;-84
2022/11/10 15:17:44;;;;;;;0.95;0.50;;;10.30;99.90;;;;;;8292284;28;20092;-84
2022/11/10 15:21:44;;;;;;;0.60;0.50;;;9.90;99.90;;;;;;8289726;28;20080;-83
2022/11/10 15:25:46;;;;;;;1.70;0.65;;;9.70;99.90;;;;;;8301837;28;20030;-83
2022/11/10 15:29:47;;;;;;;1.70;0.47;;;9.60;99.90;;;;;;8300234;28;20405;-84
2022/11/10 15:33:53;;;;;;;0.98;0.60;;;9.40;99.90;;;;;;8297362;28;20024;-83
2022/11/10 15:38:04;;;;;;;1.25;0.60;;;9.20;99.90;;;;;;8296561;28;20010;-83
2022/11/10 15:42:14;;;;;;;1.88;0.82;;;9.00;99.90;;;;;;8298764;28;20025;-84
2022/11/10 15:46:16;;;;;;;;;;;8.80;99.90;;;;;;8292920;28;20124;-84
2022/11/10 15:50:17;;;;;;;4.25;2.53;;;8.90;99.90;;;;;;8300763;28;20365;-84
2022/11/10 15:54:21;;;;;;;4.00;1.73;;;8.40;99.90;;;;;;8299844;28;20049;-84
2022/11/10 15:58:22;;;;;;;3.47;1.23;;;7.90;99.90;;;;;;8299294;28;20076;-84
2022/11/10 16:02:24;;;;;;;3.40;1.17;;;7.70;99.90;;;;;;8298626;28;20581;-84
2022/11/10 16:06:26;;;;;;;3.55;1.60;;;7.60;99.90;;;;;;8286113;28;20087;-84
2022/11/10 16:10:26;;;;;;;2.40;1.25;;;7.50;99.90;;;;;;8296921;28;20022;-84
2022/11/10 16:14:28;;;;;;;3.65;1.58;;;7.50;99.90;;;;;;8299075;28;20485;-84
2022/11/10 16:18:29;;;;;;;3.20;1.25;;;7.30;99.90;;;;;;8296606;28;20141;-84
2022/11/10 16:22:30;;;;;;;1.75;1.13;;;7.20;99.90;;;;;;8292401;28;20126;-84
2022/11/10 16:26:33;;;;;;;1.27;0.93;;;7.20;99.90;;;;;;8296425;28;20030;-83
2022/11/10 16:30:34;;;;;;;4.10;1.70;;;7.30;99.90;;;;;;8291435;28;20022;-84
2022/11/10 16:34:34;;;;;;;2.38;1.45;;;7.00;99.90;;;;;;8296066;28;20033;-84
2022/11/10 16:38:35;;;;;;;2.20;1.60;;;6.80;99.90;;;;;;8294562;28;20036;-84
2022/11/10 16:42:35;;;;;;;3.28;1.58;;;6.60;99.90;;;;;;8290186;28;20031;-84
2022/11/10 16:46:36;;;;;;;2.45;1.65;;;6.50;99.90;;;;;;8299495;28;20116;-84
2022/11/10 16:50:36;;;;;;;5.50;2.00;;;6.30;99.90;;;;;;8297192;28;20596;-84
2022/11/10 16:54:37;;;;;;;2.38;1.45;;;6.10;99.90;;;;;;8298431;28;20540;-84
2022/11/10 16:58:38;;;;;;;7.50;2.30;;;6.00;99.90;;;;;;8289445;28;20037;-84
2022/11/10 17:02:39;;;;;;;5.55;2.70;;;5.90;99.90;;;;;;8286576;28;20029;-84
2022/11/10 17:06:39;;;;;;;6.18;3.83;;;5.80;99.90;;;;;;8284225;28;20490;-84
2022/11/10 17:10:40;;;;;;;11.77;6.55;;;5.60;99.90;;;;;;8289295;28;20038;-84
2022/11/10 17:14:40;;;;;;;17.90;9.10;;;5.50;99.90;;;;;;8296876;28;20030;-83
2022/11/10 17:18:42;;;;;;;23.88;11.63;;;5.60;99.90;;;;;;8297918;28;20033;-84
2022/11/10 17:22:43;;;;;;;32.95;14.18;;;5.40;99.90;;;;;;8295992;28;20037;-84
2022/11/10 17:26:44;;;;;;;26.48;13.65;;;5.40;99.90;;;;;;8296695;28;20536;-84
2022/11/10 17:30:45;;;;;;;11.23;6.05;;;5.40;99.90;;;;;;8293446;28;20022;-84
2022/11/10 17:34:46;;;;;;;15.05;8.27;;;5.40;99.90;;;;;;8296213;28;20026;-84
2022/11/10 17:38:47;;;;;;;7.97;4.45;;;5.30;99.90;;;;;;8296952;28;20677;-83
2022/11/10 17:42:47;;;;;;;5.40;3.65;;;5.30;99.90;;;;;;8268393;28;20031;-84
2022/11/10 17:46:48;;;;;;;6.00;1.70;;;5.40;99.90;;;;;;8284123;28;20023;-83
2022/11/10 17:50:49;;;;;;;2.97;1.95;;;5.40;99.90;;;;;;8285535;28;20041;-84
2022/11/10 17:54:49;;;;;;;5.25;2.35;;;5.30;99.90;;;;;;8275918;28;20072;-84
2022/11/10 17:58:52;;;;;;;6.72;2.75;;;5.30;99.90;;;;;;8278978;28;20453;-84
2022/11/10 18:02:53;;;;;;;6.65;3.58;;;5.30;99.90;;;;;;8286996;28;20018;-84
2022/11/10 18:06:54;;;;;;;4.95;2.30;;;5.20;99.90;;;;;;8282747;28;20018;-84
2022/11/10 18:10:55;;;;;;;6.20;3.00;;;5.20;99.90;;;;;;8282793;28;20463;-84
2022/11/10 18:14:55;;;;;;;24.48;10.00;;;5.00;99.90;;;;;;8287587;28;20069;-83
2022/11/10 18:18:58;;;;;;;12.77;5.75;;;5.00;99.90;;;;;;8286651;28;20120;-83
2022/11/10 18:22:59;;;;;;;17.05;6.43;;;5.00;99.90;;;;;;8280063;28;20446;-83
2022/11/10 18:26:59;;;;;;;13.95;7.00;;;4.80;99.90;;;;;;8261366;28;20026;-83
2022/11/10 18:31:08;;;;;;;11.50;6.72;;;4.60;99.90;;;;;;8283327;28;20019;-79
2022/11/10 18:35:08;;;;;;;19.75;8.07;;;4.50;99.90;;;;;;8265832;28;20057;-81
2022/11/10 18:39:09;;;;;;;17.95;10.02;;;4.50;99.90;;;;;;8276099;28;20074;-81
2022/11/10 18:43:09;;;;;;;13.70;6.10;;;4.60;99.90;;;;;;8258114;28;20140;-81
2022/11/10 18:47:11;;;;;;;15.65;6.47;;;4.80;99.90;;;;;;8287364;28;20083;-81
2022/11/10 18:51:13;;;;;;;15.30;8.40;;;4.70;99.90;;;;;;8272251;28;20026;-81
2022/11/10 18:55:14;;;;;;;16.15;9.98;;;4.70;99.90;;;;;;8285677;28;20184;-81
2022/11/10 18:59:14;;;;;;;18.85;10.13;;;4.60;99.90;;;;;;8289117;28;20045;-82
2022/11/10 19:03:15;;;;;;;19.55;11.07;;;4.40;99.90;;;;;;8293024;28;20049;-81
2022/11/10 19:07:15;;;;;;;9.25;5.57;;;4.10;99.90;;;;;;8291714;28;20521;-81
2022/11/10 19:11:18;;;;;;;8.77;5.05;;;4.20;99.90;;;;;;8294710;28;20017;-82
2022/11/10 19:15:19;;;;;;;13.73;7.10;;;4.30;99.90;;;;;;8299070;28;20026;-81
2022/11/10 19:19:19;;;;;;;27.45;14.98;;;4.20;99.90;;;;;;8295637;28;20092;-82
2022/11/10 19:23:20;;;;;;;11.68;7.30;;;4.10;99.90;;;;;;8286198;28;20030;-82
2022/11/10 19:27:21;;;;;;;21.85;10.13;;;3.90;99.90;;;;;;8287365;28;20052;-82
2022/11/10 19:31:23;;;;;;;15.13;8.10;;;4.00;99.90;;;;;;8289816;28;20061;-82
2022/11/10 19:35:23;;;;;;;19.15;11.18;;;3.70;99.90;;;;;;8287611;28;20063;-82
2022/11/10 19:39:24;;;;;;;17.27;10.15;;;3.60;99.90;;;;;;8293738;28;20030;-81
2022/11/10 19:43:24;;;;;;;12.20;7.70;;;3.50;99.90;;;;;;8299999;28;20057;-82
2022/11/10 19:47:25;;;;;;;14.55;8.73;;;3.50;99.90;;;;;;8303351;28;20075;-82
2022/11/10 19:51:27;;;;;;;17.67;8.13;;;3.50;99.90;;;;;;8297028;28;20033;-82
2022/11/10 19:55:30;;;;;;;14.50;7.75;;;3.60;99.90;;;;;;8299649;28;20083;-82
2022/11/10 19:59:31;;;;;;;13.50;7.63;;;3.50;99.90;;;;;;8303169;28;20041;-81
2022/11/10 20:03:32;;;;;;;11.68;7.65;;;3.30;99.90;;;;;;8292687;28;20034;-80
2022/11/10 20:11:52;;;;;;;15.77;8.20;;;3.30;99.90;;;;;;8292531;28;20040;-82
2022/11/10 20:15:52;;;;;;;12.48;7.50;;;3.30;99.90;;;;;;8303716;28;20022;-82
2022/11/10 20:19:53;;;;;;;12.40;7.22;;;3.30;99.90;;;;;;8311925;28;20033;-81
2022/11/10 20:23:55;;;;;;;26.23;11.45;;;3.20;99.90;;;;;;8314353;28;20036;-81
2022/11/10 20:27:57;;;;;;;21.38;10.93;;;3.30;99.90;;;;;;8298077;28;20022;-82
2022/11/10 20:31:57;;;;;;;22.27;12.15;;;3.20;99.90;;;;;;8290805;28;20049;-80
2022/11/10 20:36:05;;;;;;;10.45;6.22;;;3.20;99.90;;;;;;8297383;28;20026;-82
2022/11/10 20:40:07;;;;;;;14.68;6.45;;;3.00;99.90;;;;;;8290469;28;20022;-81
2022/11/10 20:44:07;;;;;;;10.15;5.82;;;2.90;99.90;;;;;;8277545;28;20061;-81
2022/11/10 20:48:08;;;;;;;9.18;5.45;;;3.00;99.90;;;;;;8294128;28;20049;-81
2022/11/10 20:52:09;;;;;;;10.15;6.13;;;3.10;99.90;;;;;;8296514;28;20025;-82
2022/11/10 20:56:11;;;;;;;9.80;5.25;;;2.90;99.90;;;;;;8293537;28;20029;-81
2022/11/10 21:00:12;;;;;;;10.48;6.28;;;2.80;99.90;;;;;;8291497;28;20100;-83
2022/11/10 21:04:12;;;;;;;14.45;7.40;;;2.70;99.90;;;;;;8277360;28;20038;-82
2022/11/10 21:08:13;;;;;;;26.05;9.70;;;2.60;99.90;;;;;;8271976;28;20030;-82
2022/11/10 21:16:33;;;;;;;12.43;7.07;;;2.80;99.90;;;;;;8285505;28;20040;-82
2022/11/10 21:20:33;;;;;;;13.25;7.10;;;2.80;99.90;;;;;;8274906;28;20023;-82
2022/11/10 21:24:34;;;;;;;16.48;9.00;;;2.90;99.90;;;;;;8282223;28;20033;-82
2022/11/10 21:28:34;;;;;;;25.35;13.52;;;2.90;99.90;;;;;;8291716;28;20029;-82
2022/11/10 21:32:35;;;;;;;11.50;6.80;;;2.70;99.90;;;;;;8293992;28;20026;-82
2022/11/10 21:36:35;;;;;;;17.15;7.57;;;2.60;99.90;;;;;;8289766;28;20037;-82